Flight Track Log - Related Links

Times and Time Zones

All times are in EDT time to prevent confusion due to time zone crossing. See the AAL1326 flight status page for this flight to view local times or setup timezone preferences in your user account.

Time Position Orientation Groundspeed Altitude Reporting Facility
EDT Latitude Longitude Course Direction KTS MPH feet Rate Location/Type
Sat 06:53:56 PM 41.8914 -87.8836 173° South 200 230 4,900  Level Chicago Center
Sat 06:54:00 PM 41.7609 -87.7732 143° Southeast  Level Estimated
Sat 06:54:58 PM 41.8267 -87.8511 159° South 238 274 8,000  Level Chicago Center
Sat 06:55:00 PM 41.6504 -87.7068 166° South  Level Estimated
Sat 06:56:00 PM 41.5400 -87.6406 167° South  Level Estimated
Sat 06:56:00 PM 41.7444 -87.8136 161° South 259 298 11,800  Level Chicago Center
Sat 06:57:00 PM 41.4294 -87.5747 180° South  Level Estimated
Sat 06:57:01 PM 41.6678 -87.7925 168° South 278 320 15,000  Level Chicago Center
Sat 06:58:00 PM 41.3242 -87.5121 180° South  Level Estimated
Sat 06:58:03 PM 41.5875 -87.7711 169° South 291 335 17,400  Level Chicago Center
Sat 06:59:00 PM 41.2189 -87.4497 173° South  Level Estimated
Sat 06:59:05 PM 41.4933 -87.7436 168° South 338 389 19,400  Level Chicago Center
Sat 07:00:07 PM 41.3922 -87.7242 172° South 358 412 22,000 2,293 Climbing Chicago Center
Sat 07:01:08 PM 41.2908 -87.7247 180° South 362 417 24,100 2,000 Climbing Chicago Center
Sat 07:02:10 PM 41.1856 -87.7242 180° South 373 429 26,100 1,268 Climbing Chicago Center
Sat 07:03:11 PM 41.0725 -87.7075 174° South 398 458 26,700 1,220 Climbing Chicago Center
Sat 07:04:13 PM 40.9550 -87.6761 169° South 438 504 28,600 1,887 Climbing Chicago Center
Sat 07:05:15 PM 40.8175 -87.6100 160° South 439 505 30,600 1,756 Climbing Chicago Center
Sat 07:06:16 PM 40.7031 -87.5572 161° South 438 504 32,200 1,512 Climbing Chicago Center
Sat 07:07:18 PM 40.5883 -87.5047 161° South 438 504 33,700 1,268 Climbing Chicago Center
Sat 07:08:19 PM 40.4731 -87.4494 160° South 442 509 34,800 1,220 Climbing Chicago Center
Sat 07:09:21 PM 40.3489 -87.3903 160° South 443 510 36,200 1,366 Climbing Chicago Center
Sat 07:10:22 PM 40.2317 -87.3378 161° South 442 509 37,600 1,271 Climbing Chicago Center
Sat 07:11:19 PM 40.1147 -87.2844 161° South 436 502 38,700 712 Climbing Indianapolis Center
Sat 07:12:20 PM 40.0000 -87.2317 161° South 434 499 39,000 146 Climbing Indianapolis Center
Sat 07:13:22 PM 39.8836 -87.1769 160° South 442 509 39,000  Level Indianapolis Center
Sat 07:14:23 PM 39.7672 -87.1250 161° South 441 507 39,000  Level Indianapolis Center
Sat 07:15:24 PM 39.6503 -87.0714 161° South 442 509 39,000  Level Indianapolis Center
Sat 07:16:26 PM 39.5339 -87.0172 160° South 443 510 39,000  Level Indianapolis Center
Sat 07:17:27 PM 39.4172 -86.9658 161° South 442 509 39,000  Level Indianapolis Center
Sat 07:18:28 PM 39.3006 -86.9133 161° South 441 507 39,000  Level Indianapolis Center
Sat 07:19:29 PM 39.1856 -86.8606 160° South 439 505 39,000  Level Indianapolis Center
Sat 07:20:31 PM 39.0583 -86.7803 154° Southeast 442 509 39,000  Level Indianapolis Center
Sat 07:21:32 PM 38.9500 -86.7056 152° Southeast 441 507 39,000  Level Indianapolis Center
Sat 07:22:33 PM 38.8411 -86.6333 153° Southeast 438 504 39,000  Level Indianapolis Center
Sat 07:23:34 PM 38.7328 -86.5594 152° Southeast 436 502 39,000  Level Indianapolis Center
Sat 07:24:35 PM 38.6244 -86.4878 153° Southeast 435 501 39,000  Level Indianapolis Center
Sat 07:25:37 PM 38.5169 -86.4150 152° Southeast 435 501 39,000  Level Indianapolis Center
Sat 07:26:38 PM 38.4092 -86.3433 152° Southeast 434 499 39,000  Level Indianapolis Center
Sat 07:27:39 PM 38.3003 -86.2708 152° Southeast 436 502 39,000  Level Indianapolis Center
Sat 07:28:40 PM 38.1914 -86.1992 153° Southeast 436 502 39,000  Level Indianapolis Center
Sat 07:29:41 PM 38.0819 -86.1261 152° Southeast 439 505 39,000  Level Indianapolis Center
Sat 07:30:42 PM 37.9711 -86.0542 153° Southeast 442 509 39,000  Level Indianapolis Center
Sat 07:31:43 PM 37.8608 -85.9814 152° Southeast 444 511 39,000  Level Indianapolis Center
Sat 07:32:44 PM 37.7503 -85.9097 153° Southeast 444 511 39,000  Level Indianapolis Center
Sat 07:33:45 PM 37.6369 -85.8375 153° Southeast 449 517 39,000  Level Indianapolis Center
Sat 07:34:47 PM 37.5269 -85.7647 152° Southeast 449 517 39,000  Level Indianapolis Center
Sat 07:35:48 PM 37.4150 -85.6925 153° Southeast 449 517 39,000  Level Indianapolis Center
Sat 07:36:49 PM 37.2928 -85.6139 153° Southeast 448 516 39,000  Level Indianapolis Center
Sat 07:37:50 PM 37.1814 -85.5425 153° Southeast 446 513 39,000  Level Indianapolis Center
Sat 07:38:51 PM 37.0667 -85.4681 153° Southeast 440 506 39,000  Level Indianapolis Center
Sat 07:39:52 PM 36.9617 -85.4025 153° Southeast 442 509 39,000  Level Indianapolis Center
Sat 07:40:53 PM 36.8519 -85.3322 153° Southeast 442 509 39,000  Level Indianapolis Center
Sat 07:41:54 PM 36.7428 -85.2628 153° Southeast 441 507 39,000  Level Indianapolis Center
Sat 07:42:55 PM 36.6328 -85.1947 154° Southeast 441 507 39,000  Level Indianapolis Center
Sat 07:43:56 PM 36.5161 -85.1561 165° South 435 501 39,000  Level Indianapolis Center
Sat 07:44:57 PM 36.3975 -85.1258 168° South 434 499 39,000  Level Indianapolis Center
Sat 07:45:58 PM 36.2561 -85.0894 168° South 433 498 39,000  Level Indianapolis Center
Sat 07:46:59 PM 36.1364 -85.0597 169° South 437 503 39,000  Level Indianapolis Center
Sat 07:47:23 PM 36.0897 -85.0486 169° South 436 502 39,000  Level Atlanta Center
Sat 07:48:23 PM 35.9708 -85.0214 170° South 436 502 39,000  Level Atlanta Center
Sat 07:49:23 PM 35.8628 -84.9894 167° South 436 502 39,000  Level Atlanta Center
Sat 07:50:23 PM 35.7231 -84.9594 170° South 454 522 39,000  Level Atlanta Center
Sat 07:51:23 PM 35.6169 -84.9278 166° South 454 522 39,000  Level Atlanta Center
Sat 07:52:23 PM 35.4961 -84.8983 169° South 454 522 39,000  Level Atlanta Center
Sat 07:53:23 PM 35.3733 -84.8664 168° South 448 516 39,000  Level Atlanta Center
Sat 07:54:23 PM 35.2525 -84.8372 169° South 448 516 39,000  Level Atlanta Center
Sat 07:55:23 PM 35.1339 -84.8083 169° South 448 516 39,000  Level Atlanta Center
Sat 07:56:23 PM 35.0150 -84.7767 168° South 448 516 39,000  Level Atlanta Center
Sat 07:57:23 PM 34.8964 -84.7478 169° South 443 510 39,000  Level Atlanta Center
Sat 07:58:23 PM 34.7628 -84.7139 168° South 443 510 39,000  Level Atlanta Center
Sat 07:59:23 PM 34.6461 -84.6853 169° South 448 516 39,000  Level Atlanta Center
Sat 08:00:23 PM 34.5275 -84.6539 168° South 443 510 39,000  Level Atlanta Center
Sat 08:01:23 PM 34.4064 -84.6253 169° South 443 510 39,000  Level Atlanta Center
Sat 08:02:23 PM 34.2897 -84.5969 169° South 444 511 39,000  Level Atlanta Center
Sat 08:03:23 PM 34.1667 -84.5686 169° South 449 517 39,000  Level Atlanta Center
Sat 08:04:23 PM 34.0436 -84.5378 168° South 449 517 39,000  Level Atlanta Center
Sat 08:05:23 PM 33.9247 -84.5094 169° South 449 517 39,000  Level Atlanta Center
Sat 08:06:23 PM 33.8061 -84.4814 169° South 444 511 39,000  Level Atlanta Center
Sat 08:07:23 PM 33.6892 -84.4508 168° South 444 511 39,000  Level Atlanta Center
Sat 08:08:23 PM 33.5683 -84.4153 166° South 444 511 39,000  Level Atlanta Center
Sat 08:09:23 PM 33.4556 -84.3675 161° South 438 504 39,000  Level Atlanta Center
Sat 08:10:23 PM 33.3389 -84.3172 160° South 444 511 39,000  Level Atlanta Center
Sat 08:11:23 PM 33.2264 -84.2722 161° South 444 511 39,000  Level Atlanta Center
Sat 08:12:23 PM 33.1200 -84.2272 160° South 444 511 39,000  Level Atlanta Center
Sat 08:13:23 PM 32.9969 -84.1750 160° South 439 505 39,000  Level Atlanta Center
Sat 08:14:23 PM 32.8819 -84.1278 161° South 444 511 39,000  Level Atlanta Center
Sat 08:15:23 PM 32.7611 -84.0783 161° South 444 511 39,000  Level Atlanta Center
Sat 08:16:23 PM 32.6442 -84.0289 160° South 444 511 39,000  Level Atlanta Center
Sat 08:17:23 PM 32.5272 -83.9822 161° South 444 511 39,000  Level Atlanta Center
Sat 08:18:23 PM 32.4083 -83.9306 160° South 444 511 39,000  Level Atlanta Center
Sat 08:19:23 PM 32.2914 -83.8842 161° South 444 511 39,000  Level Atlanta Center
Sat 08:20:23 PM 32.1744 -83.8375 161° South 444 511 39,000  Level Atlanta Center
Sat 08:21:28 PM 32.0569 -83.7872 160° South 444 511 39,000  Level Jacksonville Center
Sat 08:22:28 PM 31.9403 -83.7397 161° South 444 511 39,000 -50 Level Jacksonville Center
Sat 08:23:28 PM 31.8236 -83.6897 160° South 444 511 38,900  Descending Jacksonville Center
Sat 08:24:28 PM 31.7069 -83.6472 163° South 444 511 39,000 50 Climbing Jacksonville Center
Sat 08:25:28 PM 31.5717 -83.5925 161° South 444 511 39,000  Level Jacksonville Center
Sat 08:26:28 PM 31.4528 -83.5453 161° South 449 517 39,000  Level Jacksonville Center
Sat 08:27:28 PM 31.3383 -83.5006 162° South 444 511 39,000  Level Jacksonville Center
Sat 08:28:28 PM 31.2217 -83.4539 161° South 444 511 39,000  Level Jacksonville Center
Sat 08:29:28 PM 31.1028 -83.4094 162° South 444 511 39,000  Level Jacksonville Center
Sat 08:30:28 PM 30.9861 -83.3628 161° South 444 511 39,000  Level Jacksonville Center
Sat 08:31:28 PM 30.8672 -83.3136 160° South 444 511 39,000  Level Jacksonville Center
Sat 08:32:28 PM 30.7692 -83.2722 160° South 435 501 39,000 -50 Level Jacksonville Center
Sat 08:33:28 PM 30.6525 -83.2161 158° South 435 501 38,900 -50 Descending Jacksonville Center
Sat 08:34:28 PM 30.5378 -83.1556 156° South 441 507 38,900 50 Level Jacksonville Center
Sat 08:35:28 PM 30.4208 -83.0997 158° South 446 513 39,000 50 Climbing Jacksonville Center
Sat 08:36:28 PM 30.3039 -83.0394 156° South 457 526 39,000  Level Jacksonville Center
Sat 08:37:28 PM 30.1850 -82.9814 157° South 457 526 39,000  Level Jacksonville Center
Sat 08:38:28 PM 30.0703 -82.9239 157° South 457 526 39,000  Level Jacksonville Center
Sat 08:39:28 PM 29.9450 -82.8661 158° South 462 532 39,000  Level Jacksonville Center
Sat 08:40:28 PM 29.8258 -82.8089 157° South 467 537 39,000  Level Jacksonville Center
Sat 08:41:28 PM 29.7069 -82.7492 156° South 472 543 39,000 -50 Level Jacksonville Center
Sat 08:42:28 PM 29.5733 -82.6825 157° South 472 543 38,900  Descending Jacksonville Center
Sat 08:43:28 PM 29.4561 -82.6231 156° South 472 543 39,000 50 Climbing Jacksonville Center
Sat 08:44:28 PM 29.3369 -82.5639 157° South 472 543 39,000  Level Jacksonville Center
Sat 08:45:28 PM 29.2158 -82.5047 157° South 472 543 39,000  Level Jacksonville Center
Sat 08:46:28 PM 29.0967 -82.4506 158° South 466 536 39,000  Level Jacksonville Center
Sat 08:47:28 PM 28.9756 -82.4511 180° South 451 519 39,000  Level Jacksonville Center
Sat 08:48:28 PM 28.8544 -82.4586 183° South 441 507 39,000  Level Jacksonville Center
Sat 08:49:28 PM 28.7356 -82.4664 183° South 441 507 39,000  Level Jacksonville Center
Sat 08:50:28 PM 28.6292 -82.4739 184° South 441 507 39,000  Level Jacksonville Center
Sat 08:51:28 PM 28.5039 -82.4531 172° South 441 507 39,000 -50 Level Jacksonville Center
Sat 08:52:28 PM 28.3808 -82.4253 169° South 446 513 38,900  Descending Jacksonville Center
Sat 08:54:43 PM 28.0847 -82.3606 169° South 449 517 39,000  Climbing Miami Center
Sat 08:55:43 PM 27.9625 -82.3336 169° South 449 517 38,900 -50 Descending Miami Center
Sat 08:56:43 PM 27.8425 -82.3067 169° South 449 517 38,900 50 Level Miami Center
Sat 08:57:43 PM 27.7308 -82.2825 169° South 449 517 39,000 50 Climbing Miami Center
Sat 08:58:43 PM 27.5944 -82.2481 167° South 449 517 39,000 -450 Level Miami Center
Sat 08:59:43 PM 27.4753 -82.1956 159° South 454 522 38,100 -900 Descending Miami Center
Sat 09:00:43 PM 27.3644 -82.1506 160° South 464 534 37,200 -650 Descending Miami Center
Sat 09:01:43 PM 27.2453 -82.0939 157° South 464 534 36,800 -1,700 Descending Miami Center
Sat 09:02:43 PM 27.1236 -81.9975 145° Southeast 478 550 33,800 -3,100 Descending Miami Center
Sat 09:03:43 PM 27.0119 -81.9086 145° Southeast 494 568 30,600 -2,950 Descending Miami Center
Sat 09:04:43 PM 26.9144 -81.8322 145° Southeast 494 568 27,900 -2,650 Descending Miami Center
Sat 09:05:43 PM 26.8047 -81.7439 144° Southeast 494 568 25,300 -2,600 Descending Miami Center
Sat 09:06:43 PM 26.7008 -81.6628 145° Southeast 478 550 22,700 -2,700 Descending Miami Center
Sat 09:07:43 PM 26.5953 -81.5703 142° Southeast 449 517 19,900 -2,450 Descending Miami Center
Sat 09:08:43 PM 26.5169 -81.4742 132° Southeast 430 495 17,800 -2,150 Descending Miami Center
Sat 09:09:43 PM 26.4428 -81.3808 132° Southeast 417 480 15,600 -2,214 Descending Miami Center
Sat 09:10:07 PM 26.4122 -81.3494 137° Southeast 399 459 14,700 -2,200 Descending Miami Center
Sat 09:10:43 PM 26.3703 -81.2900 128° Southeast 406 467 13,400 -1,701 Descending Miami Center
Sat 09:11:14 PM 26.3439 -81.2636 138° Southeast 384 442 12,800 -1,100 Descending Miami Center
Sat 09:11:43 PM 26.3017 -81.2086 131° Southeast 380 437 12,300 -1,082 Descending Miami Center
Sat 09:12:15 PM 26.2714 -81.1753 135° Southeast 325 374 11,700 -1,200 Descending Miami Center
Sat 09:12:43 PM 26.2561 -81.1306 111° Southeast 341 392 11,100 -1,475 Descending Miami Center
Sat 09:13:16 PM 26.2428 -81.0814 107° East 288 331 10,200 -1,400 Descending Miami Center
Sat 09:13:43 PM 26.2356 -81.0419 102° East 306 352 9,700 -1,000 Descending Miami Center
Sat 09:14:16 PM 26.2225 -80.9928 106° East 293 337 9,200 -1,000 Descending Miami Center
Sat 09:14:43 PM 26.2172 -80.9556 99° East 294 338 8,700 -1,180 Descending Miami Center
Sat 09:15:17 PM 26.2017 -80.9086 110° East 289 333 8,000 -1,200 Descending Miami Center
Sat 09:15:43 PM 26.1967 -80.8669 98° East 289 333 7,500 -1,180 Descending Miami Center
Sat 09:16:18 PM 26.1833 -80.8225 108° East 284 327 6,800 -1,100 Descending Miami Center
Sat 09:16:43 PM 26.1781 -80.7853 99° East 283 326 6,400 -787 Descending Miami Center
Sat 09:17:19 PM 26.1625 -80.7408 111° Southeast 270 311 6,000 -800 Descending Miami Center
Sat 09:17:43 PM 26.1550 -80.7058 103° East 278 320 5,600 -1,082 Descending Miami Center
Sat 09:18:20 PM 26.1436 -80.6617 106° East 264 304 4,900 -1,200 Descending Miami Center
Sat 09:18:43 PM 26.1383 -80.6267 100° East 273 314 4,400 -1,279 Descending Miami Center
Sat 09:19:21 PM 26.1228 -80.5822 111° Southeast 257 296 3,600 -1,000 Descending Miami Center
Sat 09:19:43 PM 26.1194 -80.5519 97° East 265 305 3,400 -590 Descending Miami Center
Sat 09:20:22 PM 26.1058 -80.5100 110° East 235 270 3,000 -240 Descending Miami Center
Sat 09:21:23 PM 26.0886 -80.4425 106° East 214 246 3,000  Level Miami Center
Sat 09:22:24 PM 26.0756 -80.3842 104° East 198 228 3,000  Level Miami Center

Login

Don't have an account? Register now (free) for customized features, flight alerts, and more!